Time;durP1;ratioP1;P1;durP2;ratioP2;P2;SDS_P1;SDS_P2;PMS_P1;PMS_P2;Temp;Humidity;BMP_temperature;BMP_pressure;BME280_temperature;BME280_humidity;BME280_pressure;Samples;Min_cycle;Max_cycle;Signal;HPM_P1;HPM_P2
2024/02/01 00:02:05;;;;;;;7.30;5.32;;;;;;;;;;5816366;28;20057;-77
2024/02/01 00:04:56;;;;;;;9.75;5.22;;;;;;;;;;5817017;28;20053;-77
2024/02/01 00:07:47;;;;;;;10.43;6.05;;;;;;;;;;5814976;28;20046;-77
2024/02/01 00:10:38;;;;;;;10.25;5.32;;;;;;;;;;5816378;28;20038;-77
2024/02/01 00:13:29;;;;;;;18.88;8.20;;;;;;;;;;5815158;28;20046;-77
2024/02/01 00:16:23;;;;;;;9.35;6.20;;;;;;;;;;5815206;28;20429;-77
2024/02/01 00:19:14;;;;;;;8.02;4.70;;;;;;;;;;5815268;28;20042;-77
2024/02/01 00:22:05;;;;;;;8.23;5.97;;;;;;;;;;5814857;28;20046;-77
2024/02/01 00:25:05;;;;;;;11.02;4.65;;;;;;;;;;5815255;28;20393;-77
2024/02/01 00:27:56;;;;;;;9.05;6.13;;;;;;;;;;5815375;28;20519;-77
2024/02/01 00:30:47;;;;;;;11.15;5.50;;;;;;;;;;5832555;28;20042;-77
2024/02/01 00:33:38;;;;;;;7.45;5.00;;;;;;;;;;5820817;28;20085;-77
2024/02/01 00:36:29;;;;;;;8.15;5.30;;;;;;;;;;5819797;28;20143;-77
2024/02/01 00:39:20;;;;;;;6.45;5.40;;;;;;;;;;5819261;28;20042;-77
2024/02/01 00:42:11;;;;;;;4.65;3.92;;;;;;;;;;5819348;28;20046;-77
2024/02/01 00:45:02;;;;;;;7.28;5.47;;;;;;;;;;5819354;28;20047;-77
2024/02/01 00:47:52;;;;;;;8.43;4.57;;;;;;;;;;5819614;28;20050;-77
2024/02/01 00:50:43;;;;;;;10.38;5.22;;;;;;;;;;5819197;28;20046;-77
2024/02/01 00:53:34;;;;;;;13.20;4.63;;;;;;;;;;5819115;28;20125;-77
2024/02/01 00:56:25;;;;;;;13.13;4.30;;;;;;;;;;5803185;28;20050;-78
2024/02/01 00:59:16;;;;;;;8.43;4.28;;;;;;;;;;5818706;28;20077;-77
2024/02/01 01:02:07;;;;;;;8.88;4.28;;;;;;;;;;5835246;28;20045;-77
2024/02/01 01:04:57;;;;;;;9.63;5.18;;;;;;;;;;5849174;28;20054;-77
2024/02/01 01:07:48;;;;;;;9.50;4.13;;;;;;;;;;5841480;28;20045;-77
2024/02/01 01:10:39;;;;;;;5.25;4.75;;;;;;;;;;5842976;28;20056;-77
2024/02/01 01:13:30;;;;;;;5.32;4.10;;;;;;;;;;5841455;28;20543;-78
2024/02/01 01:16:21;;;;;;;6.15;4.68;;;;;;;;;;5841458;28;20050;-77
2024/02/01 01:19:12;;;;;;;6.47;4.20;;;;;;;;;;5841367;28;20041;-77
2024/02/01 01:22:03;;;;;;;8.52;5.03;;;;;;;;;;5842346;28;20046;-78
2024/02/01 01:24:54;;;;;;;3.30;2.75;;;;;;;;;;5841965;28;20385;-77
2024/02/01 01:27:45;;;;;;;6.07;3.92;;;;;;;;;;5842547;28;20096;-77
2024/02/01 01:30:36;;;;;;;10.02;3.95;;;;;;;;;;5841218;28;20065;-77
2024/02/01 01:33:26;;;;;;;9.15;3.80;;;;;;;;;;5841100;28;20054;-77
2024/02/01 01:36:17;;;;;;;7.28;4.00;;;;;;;;;;5841060;28;20153;-77
2024/02/01 01:39:09;;;;;;;7.68;4.88;;;;;;;;;;5824700;28;20420;-77
2024/02/01 01:42:00;;;;;;;3.20;2.78;;;;;;;;;;5840511;28;20050;-77
2024/02/01 01:44:51;;;;;;;4.80;2.78;;;;;;;;;;5842259;28;20046;-77
2024/02/01 01:47:42;;;;;;;7.35;3.92;;;;;;;;;;5842190;28;20045;-77
2024/02/01 01:50:33;;;;;;;4.55;2.80;;;;;;;;;;5824597;28;20041;-77
2024/02/01 01:53:25;;;;;;;7.00;3.67;;;;;;;;;;5840709;28;20049;-77
2024/02/01 01:56:17;;;;;;;8.50;4.88;;;;;;;;;;5841907;28;20045;-77
2024/02/01 01:59:12;;;;;;;5.03;3.65;;;;;;;;;;5840327;28;20057;-77
2024/02/01 02:02:04;;;;;;;10.00;3.33;;;;;;;;;;5824307;28;20061;-77
2024/02/01 02:04:56;;;;;;;3.83;3.47;;;;;;;;;;5840951;28;20500;-77
2024/02/01 02:07:47;;;;;;;4.68;4.20;;;;;;;;;;5840430;28;20053;-77
2024/02/01 02:10:38;;;;;;;5.55;3.67;;;;;;;;;;5839943;28;20046;-77
2024/02/01 02:13:29;;;;;;;13.18;5.15;;;;;;;;;;5840238;28;20050;-77
2024/02/01 02:16:20;;;;;;;5.90;3.42;;;;;;;;;;5840196;28;20899;-77
2024/02/01 02:19:11;;;;;;;7.57;3.95;;;;;;;;;;5823699;28;20180;-77
2024/02/01 02:22:03;;;;;;;6.32;3.60;;;;;;;;;;5839980;28;20057;-77
2024/02/01 02:24:54;;;;;;;16.95;5.05;;;;;;;;;;5840402;28;20517;-77
2024/02/01 02:27:45;;;;;;;8.95;3.38;;;;;;;;;;5841017;28;20042;-77
2024/02/01 02:30:38;;;;;;;5.22;3.72;;;;;;;;;;5823608;28;20037;-77
2024/02/01 02:33:29;;;;;;;6.72;4.03;;;;;;;;;;5839776;28;20049;-77
2024/02/01 02:36:20;;;;;;;5.38;3.42;;;;;;;;;;5823474;28;20054;-77
2024/02/01 02:39:14;;;;;;;4.63;3.38;;;;;;;;;;5839549;28;20116;-77
2024/02/01 02:42:05;;;;;;;8.43;4.47;;;;;;;;;;5856070;28;20069;-77
2024/02/01 02:44:56;;;;;;;10.82;4.18;;;;;;;;;;5840053;28;20056;-77
2024/02/01 02:47:47;;;;;;;6.03;2.85;;;;;;;;;;5839590;28;20038;-77
2024/02/01 02:50:38;;;;;;;6.13;4.13;;;;;;;;;;5839687;28;20058;-77
2024/02/01 02:53:29;;;;;;;17.20;4.03;;;;;;;;;;5840260;28;20042;-77
2024/02/01 02:56:22;;;;;;;6.30;3.55;;;;;;;;;;5822950;28;20057;-77
2024/02/01 02:59:13;;;;;;;4.47;2.40;;;;;;;;;;5839184;28;20388;-77
2024/02/01 03:02:06;;;;;;;4.45;2.90;;;;;;;;;;5839039;28;20050;-77
2024/02/01 03:04:58;;;;;;;3.83;3.50;;;;;;;;;;5839739;28;20156;-77
2024/02/01 03:07:49;;;;;;;5.57;3.60;;;;;;;;;;5855424;28;20050;-77
2024/02/01 03:10:40;;;;;;;4.70;4.00;;;;;;;;;;5838992;28;20041;-77
2024/02/01 03:13:33;;;;;;;3.85;2.47;;;;;;;;;;5838874;28;20053;-77
2024/02/01 03:16:23;;;;;;;3.05;2.53;;;;;;;;;;5822993;28;20046;-78
2024/02/01 03:19:14;;;;;;;3.97;2.20;;;;;;;;;;5838494;28;20065;-77
2024/02/01 03:22:05;;;;;;;4.68;2.97;;;;;;;;;;5822229;28;20042;-77
2024/02/01 03:24:59;;;;;;;3.90;3.47;;;;;;;;;;5823071;28;20069;-77
2024/02/01 03:27:51;;;;;;;5.70;3.47;;;;;;;;;;5838870;28;20041;-77
2024/02/01 03:30:46;;;;;;;8.75;2.65;;;;;;;;;;5839640;28;20049;-77
2024/02/01 03:33:44;;;;;;;9.40;3.95;;;;;;;;;;5838711;28;20057;-77
2024/02/01 03:36:35;;;;;;;3.85;2.63;;;;;;;;;;5838636;28;20503;-77
2024/02/01 03:39:26;;;;;;;3.63;3.03;;;;;;;;;;5822156;28;20519;-78
2024/02/01 03:42:17;;;;;;;4.43;2.90;;;;;;;;;;5838208;28;20053;-77
2024/02/01 03:45:08;;;;;;;7.75;4.18;;;;;;;;;;5838737;28;20630;-77
2024/02/01 03:48:00;;;;;;;4.57;2.45;;;;;;;;;;5839082;28;20049;-77
2024/02/01 03:50:51;;;;;;;5.50;2.65;;;;;;;;;;5854852;28;20042;-77
2024/02/01 03:53:42;;;;;;;4.78;3.03;;;;;;;;;;5839441;28;20136;-77
2024/02/01 03:56:33;;;;;;;3.83;2.53;;;;;;;;;;5838256;28;20054;-77
2024/02/01 03:59:24;;;;;;;6.07;3.67;;;;;;;;;;5839423;28;20045;-77
2024/02/01 04:02:15;;;;;;;4.68;2.90;;;;;;;;;;5837675;28;20053;-77
2024/02/01 04:05:07;;;;;;;8.30;3.25;;;;;;;;;;5837865;28;20046;-77
2024/02/01 04:07:58;;;;;;;2.88;2.67;;;;;;;;;;5839736;28;20050;-77
2024/02/01 04:10:49;;;;;;;6.03;2.72;;;;;;;;;;5838134;28;20042;-77
2024/02/01 04:13:40;;;;;;;3.85;1.75;;;;;;;;;;5838035;28;20042;-77
2024/02/01 04:16:31;;;;;;;6.43;2.88;;;;;;;;;;5821704;28;20069;-77
2024/02/01 04:19:22;;;;;;;6.75;3.50;;;;;;;;;;5821628;28;20042;-77
2024/02/01 04:22:13;;;;;;;9.90;3.88;;;;;;;;;;5821525;28;20488;-77
2024/02/01 04:25:08;;;;;;;5.05;3.42;;;;;;;;;;5822114;28;20379;-77
2024/02/01 04:28:01;;;;;;;6.13;3.92;;;;;;;;;;5854602;28;20065;-77
2024/02/01 04:30:53;;;;;;;8.73;5.00;;;;;;;;;;5861277;28;20052;-77
2024/02/01 04:33:46;;;;;;;6.40;3.78;;;;;;;;;;5860890;28;20052;-77
2024/02/01 04:36:37;;;;;;;7.88;4.25;;;;;;;;;;5860943;28;20053;-77
2024/02/01 04:39:28;;;;;;;14.05;5.50;;;;;;;;;;5860755;28;20411;-77
2024/02/01 04:42:23;;;;;;;9.30;3.88;;;;;;;;;;5825613;28;20049;-77
2024/02/01 04:45:14;;;;;;;3.10;2.75;;;;;;;;;;5837465;28;20046;-77
2024/02/01 04:48:10;;;;;;;5.05;3.10;;;;;;;;;;5839063;28;20046;-77
2024/02/01 04:51:01;;;;;;;4.53;3.13;;;;;;;;;;5838502;28;20265;-77
2024/02/01 04:53:52;;;;;;;9.00;4.25;;;;;;;;;;5838034;28;20057;-77
2024/02/01 04:56:43;;;;;;;3.90;3.20;;;;;;;;;;5821469;28;20042;-77
2024/02/01 04:59:34;;;;;;;8.07;3.38;;;;;;;;;;5837941;28;20069;-78
2024/02/01 05:02:25;;;;;;;7.65;4.00;;;;;;;;;;5837094;28;20184;-77
2024/02/01 05:05:17;;;;;;;6.07;3.70;;;;;;;;;;5837697;28;20058;-77
2024/02/01 05:08:08;;;;;;;4.13;3.47;;;;;;;;;;5837354;28;20112;-77
2024/02/01 05:10:59;;;;;;;8.32;4.40;;;;;;;;;;5838062;28;20054;-77
2024/02/01 05:13:50;;;;;;;8.02;3.55;;;;;;;;;;5860628;28;20438;-77
2024/02/01 05:16:41;;;;;;;3.53;2.67;;;;;;;;;;5860533;28;20049;-77
2024/02/01 05:19:32;;;;;;;8.23;3.92;;;;;;;;;;5880872;28;20045;-77
2024/02/01 05:22:23;;;;;;;6.15;3.65;;;;;;;;;;5865717;28;20053;-77
2024/02/01 05:25:23;;;;;;;16.63;4.38;;;;;;;;;;5864352;28;20045;-77
2024/02/01 05:28:13;;;;;;;6.25;4.10;;;;;;;;;;5864273;28;20183;-77
2024/02/01 05:31:04;;;;;;;4.65;3.10;;;;;;;;;;5864514;28;20048;-77
2024/02/01 05:33:55;;;;;;;4.00;3.33;;;;;;;;;;5866073;28;20048;-77
2024/02/01 05:36:48;;;;;;;5.82;4.47;;;;;;;;;;5864409;28;20088;-77
2024/02/01 05:39:44;;;;;;;5.53;3.72;;;;;;;;;;5863900;28;20523;-77
2024/02/01 05:42:35;;;;;;;9.82;3.85;;;;;;;;;;5864645;28;20045;-77
2024/02/01 05:45:27;;;;;;;9.40;3.80;;;;;;;;;;5863906;28;20041;-77
2024/02/01 05:48:20;;;;;;;3.90;2.65;;;;;;;;;;5864309;28;20571;-77
2024/02/01 05:51:11;;;;;;;11.60;4.15;;;;;;;;;;5864964;28;20056;-77
2024/02/01 05:54:04;;;;;;;5.95;4.28;;;;;;;;;;5865157;28;20053;-77
2024/02/01 05:56:55;;;;;;;9.02;5.20;;;;;;;;;;5864232;28;20045;-77
2024/02/01 05:59:46;;;;;;;9.18;5.53;;;;;;;;;;5880225;28;20430;-77
2024/02/01 06:02:37;;;;;;;12.52;5.22;;;;;;;;;;5863470;28;20124;-77
2024/02/01 06:05:27;;;;;;;7.28;5.38;;;;;;;;;;5864986;28;20483;-77
2024/02/01 06:08:19;;;;;;;8.07;4.18;;;;;;;;;;5863061;28;20046;-77
2024/02/01 06:11:09;;;;;;;9.82;4.80;;;;;;;;;;5863212;28;20158;-77
2024/02/01 06:14:00;;;;;;;8.18;3.88;;;;;;;;;;5880258;28;20041;-77
2024/02/01 06:16:51;;;;;;;4.35;3.90;;;;;;;;;;5855429;28;20052;-77
2024/02/01 06:19:42;;;;;;;12.40;4.95;;;;;;;;;;5863651;28;20050;-77
2024/02/01 06:22:33;;;;;;;6.28;3.85;;;;;;;;;;5879626;28;20053;-77
2024/02/01 06:25:24;;;;;;;5.40;4.20;;;;;;;;;;5864209;28;20049;-77
2024/02/01 06:28:14;;;;;;;7.35;3.63;;;;;;;;;;5862587;28;20057;-77
2024/02/01 06:31:13;;;;;;;6.97;5.05;;;;;;;;;;5864501;28;20045;-77
2024/02/01 06:34:09;;;;;;;9.63;5.03;;;;;;;;;;5831035;28;20054;-77
2024/02/01 06:37:00;;;;;;;8.43;3.50;;;;;;;;;;5841472;28;20046;-77
2024/02/01 06:40:11;;;;;;;11.15;5.25;;;;;;;;;;5841210;28;20078;-77
2024/02/01 06:43:27;;;;;;;6.05;3.83;;;;;;;;;;5857166;28;20053;-77
2024/02/01 06:46:22;;;;;;;5.88;4.57;;;;;;;;;;5875742;28;20056;-77
2024/02/01 06:49:28;;;;;;;6.03;3.50;;;;;;;;;;5862627;28;20068;-77
2024/02/01 06:52:34;;;;;;;11.85;5.03;;;;;;;;;;5863562;28;20046;-77
2024/02/01 06:55:36;;;;;;;11.93;6.60;;;;;;;;;;5878889;28;20045;-77
2024/02/01 06:58:47;;;;;;;5.60;4.88;;;;;;;;;;5862484;28;20049;-77
2024/02/01 07:02:02;;;;;;;8.82;4.22;;;;;;;;;;5875813;28;20049;-77
2024/02/01 07:05:03;;;;;;;11.30;4.15;;;;;;;;;;5878905;28;20049;-77
2024/02/01 07:08:12;;;;;;;11.30;5.18;;;;;;;;;;5878689;28;20037;-78
2024/02/01 07:14:08;;;;;;;7.45;5.68;;;;;;;;;;5863584;28;20056;-77
2024/02/01 07:17:16;;;;;;;8.17;5.20;;;;;;;;;;5831040;28;20044;-77
2024/02/01 07:20:14;;;;;;;10.55;7.53;;;;;;;;;;5861566;28;20295;-78
2024/02/01 07:26:16;;;;;;;6.72;4.30;;;;;;;;;;5862524;28;20056;-77
2024/02/01 07:57:58;;;;;;;7.38;5.40;;;;;;;;;;5861349;28;20415;-77
2024/02/01 08:00:56;;;;;;;11.93;5.50;;;;;;;;;;5860973;28;20425;-77
2024/02/01 08:04:01;;;;;;;5.70;5.15;;;;;;;;;;5860742;28;20415;-77
2024/02/01 08:10:03;;;;;;;11.52;4.95;;;;;;;;;;5860937;28;20045;-77
2024/02/01 08:13:04;;;;;;;7.65;5.15;;;;;;;;;;5877388;28;20511;-77
2024/02/01 08:15:56;;;;;;;6.40;3.58;;;;;;;;;;5860949;28;20440;-77
2024/02/01 08:18:48;;;;;;;8.27;4.72;;;;;;;;;;5860657;28;20046;-78
2024/02/01 08:21:42;;;;;;;6.45;4.68;;;;;;;;;;5860496;28;20042;-77
2024/02/01 08:24:33;;;;;;;8.57;4.55;;;;;;;;;;5861294;28;20050;-77
2024/02/01 08:27:24;;;;;;;10.35;4.35;;;;;;;;;;5862009;28;20063;-77
2024/02/01 08:30:18;;;;;;;9.32;5.25;;;;;;;;;;5862015;28;20057;-77
2024/02/01 08:33:15;;;;;;;6.32;5.13;;;;;;;;;;5827099;28;20057;-77
2024/02/01 08:36:07;;;;;;;8.80;4.93;;;;;;;;;;5837678;28;20544;-78
2024/02/01 08:38:59;;;;;;;10.48;4.93;;;;;;;;;;5837969;28;20058;-78
2024/02/01 08:41:50;;;;;;;13.68;8.48;;;;;;;;;;5838986;28;20060;-78
2024/02/01 08:44:43;;;;;;;8.48;6.65;;;;;;;;;;5837270;28;20463;-77
2024/02/01 08:47:36;;;;;;;10.60;6.22;;;;;;;;;;5837605;28;20046;-78
2024/02/01 08:50:32;;;;;;;8.95;7.68;;;;;;;;;;5837567;28;20049;-77
2024/02/01 08:53:25;;;;;;;11.98;5.72;;;;;;;;;;5840450;28;20038;-77
2024/02/01 08:56:16;;;;;;;9.10;6.43;;;;;;;;;;5843126;28;20503;-78
2024/02/01 08:59:07;;;;;;;26.30;7.47;;;;;;;;;;5842924;28;20046;-77
2024/02/01 09:01:57;;;;;;;7.65;5.88;;;;;;;;;;5825739;28;20403;-78
2024/02/01 09:04:52;;;;;;;9.50;6.18;;;;;;;;;;5841746;28;20124;-77
2024/02/01 09:07:43;;;;;;;8.80;4.97;;;;;;;;;;5841800;28;20049;-78
2024/02/01 09:10:35;;;;;;;10.50;6.30;;;;;;;;;;5841907;28;20052;-77
2024/02/01 09:13:30;;;;;;;7.32;6.70;;;;;;;;;;5841737;28;20500;-77
2024/02/01 09:16:30;;;;;;;6.85;4.80;;;;;;;;;;5825874;28;20065;-77
2024/02/01 09:19:21;;;;;;;7.68;5.40;;;;;;;;;;5842506;28;20049;-77
2024/02/01 09:22:12;;;;;;;7.88;5.35;;;;;;;;;;5841338;28;20052;-77
2024/02/01 09:25:03;;;;;;;14.07;8.98;;;;;;;;;;5841181;28;20060;-77
2024/02/01 09:27:54;;;;;;;10.15;7.07;;;;;;;;;;5841681;28;20053;-77
2024/02/01 09:30:47;;;;;;;7.10;5.82;;;;;;;;;;5824624;28;20053;-78
2024/02/01 09:33:42;;;;;;;9.80;7.38;;;;;;;;;;5841409;28;20484;-77
2024/02/01 09:36:34;;;;;;;7.63;5.72;;;;;;;;;;5842464;28;20896;-78
2024/02/01 09:39:25;;;;;;;11.07;7.25;;;;;;;;;;5842468;28;20412;-78
2024/02/01 09:42:18;;;;;;;8.15;7.22;;;;;;;;;;5840865;28;20655;-78
2024/02/01 09:45:10;;;;;;;11.60;7.93;;;;;;;;;;5841050;28;20136;-78
2024/02/01 09:48:01;;;;;;;5.90;5.32;;;;;;;;;;5841407;28;20057;-78
2024/02/01 09:50:55;;;;;;;11.45;6.75;;;;;;;;;;5840982;28;20041;-78
2024/02/01 09:53:50;;;;;;;13.40;5.53;;;;;;;;;;5841739;28;20038;-78
2024/02/01 09:56:42;;;;;;;9.32;6.60;;;;;;;;;;5840765;28;20085;-78
2024/02/01 09:59:37;;;;;;;13.65;5.10;;;;;;;;;;5840474;28;20049;-78
2024/02/01 10:02:30;;;;;;;7.40;5.97;;;;;;;;;;5841960;28;20068;-78
2024/02/01 10:05:28;;;;;;;10.88;6.28;;;;;;;;;;5839927;28;20144;-78
2024/02/01 10:08:18;;;;;;;7.13;4.57;;;;;;;;;;5824778;28;20111;-78
2024/02/01 10:11:19;;;;;;;7.88;5.32;;;;;;;;;;5840257;28;20046;-78
2024/02/01 10:14:13;;;;;;;6.53;4.43;;;;;;;;;;5825252;28;20052;-79
2024/02/01 10:17:05;;;;;;;9.15;5.28;;;;;;;;;;5841685;28;20454;-79
2024/02/01 10:19:56;;;;;;;11.90;4.35;;;;;;;;;;5840691;28;20050;-79
2024/02/01 10:22:47;;;;;;;8.50;4.18;;;;;;;;;;5840002;28;20566;-80
2024/02/01 10:25:45;;;;;;;7.70;5.38;;;;;;;;;;5839666;28;20053;-80
2024/02/01 10:28:36;;;;;;;4.57;3.65;;;;;;;;;;5839852;28;20042;-81
2024/02/01 10:31:29;;;;;;;6.10;3.83;;;;;;;;;;5840051;28;20049;-81
2024/02/01 10:34:22;;;;;;;9.43;4.72;;;;;;;;;;5839875;28;20107;-79
2024/02/01 10:37:15;;;;;;;5.95;4.25;;;;;;;;;;5839758;28;20057;-80
2024/02/01 10:40:10;;;;;;;3.42;3.13;;;;;;;;;;5839875;28;20133;-79
2024/02/01 10:43:01;;;;;;;5.20;3.47;;;;;;;;;;5839467;28;20046;-79
2024/02/01 10:46:10;;;;;;;5.03;3.08;;;;;;;;;;5840090;28;20042;-80
2024/02/01 10:49:21;;;;;;;4.80;3.95;;;;;;;;;;5839402;28;20046;-78
2024/02/01 10:52:13;;;;;;;5.25;3.67;;;;;;;;;;5840833;28;20096;-79
2024/02/01 10:55:09;;;;;;;5.22;4.30;;;;;;;;;;5823209;28;20069;-80
2024/02/01 10:58:01;;;;;;;10.00;5.68;;;;;;;;;;5839523;28;20049;-79
2024/02/01 11:00:52;;;;;;;4.55;3.70;;;;;;;;;;5840023;28;20045;-80
2024/02/01 11:03:57;;;;;;;5.22;3.70;;;;;;;;;;5838896;28;20050;-81
2024/02/01 11:06:49;;;;;;;5.47;4.80;;;;;;;;;;5839391;28;20041;-80
2024/02/01 11:09:43;;;;;;;6.65;3.80;;;;;;;;;;5839270;28;20412;-81
2024/02/01 11:12:38;;;;;;;9.25;5.00;;;;;;;;;;5839110;28;20137;-80
2024/02/01 11:15:30;;;;;;;4.80;4.05;;;;;;;;;;5822311;28;20048;-80
2024/02/01 11:18:21;;;;;;;8.90;5.53;;;;;;;;;;5838855;28;20054;-80
2024/02/01 11:21:12;;;;;;;2.60;2.20;;;;;;;;;;5839081;28;20047;-80
2024/02/01 11:24:08;;;;;;;6.03;4.47;;;;;;;;;;5838878;28;20160;-79
2024/02/01 11:27:13;;;;;;;3.45;2.92;;;;;;;;;;5839943;28;20050;-81
2024/02/01 11:30:21;;;;;;;3.30;2.95;;;;;;;;;;5840525;28;20128;-80
2024/02/01 11:33:17;;;;;;;3.60;2.87;;;;;;;;;;5824597;28;20053;-81
2024/02/01 11:36:09;;;;;;;6.75;4.40;;;;;;;;;;5823343;28;20038;-80
2024/02/01 11:39:01;;;;;;;2.47;2.28;;;;;;;;;;5822781;28;20050;-81
2024/02/01 11:41:53;;;;;;;3.28;2.97;;;;;;;;;;5853763;28;20037;-82
2024/02/01 11:44:44;;;;;;;4.30;3.88;;;;;;;;;;5861496;28;20136;-81
2024/02/01 11:47:35;;;;;;;6.75;5.20;;;;;;;;;;5861332;28;20040;-80
2024/02/01 11:50:26;;;;;;;11.55;5.07;;;;;;;;;;5861464;28;20065;-80
2024/02/01 11:53:17;;;;;;;5.60;3.25;;;;;;;;;;5861323;28;20057;-80
2024/02/01 11:56:08;;;;;;;6.00;3.28;;;;;;;;;;5861053;28;20045;-80
2024/02/01 11:59:01;;;;;;;8.23;5.68;;;;;;;;;;5861707;28;20046;-81
2024/02/01 12:01:51;;;;;;;6.32;4.47;;;;;;;;;;5860984;28;20053;-81
2024/02/01 12:04:45;;;;;;;6.60;4.13;;;;;;;;;;5860904;28;20041;-81
2024/02/01 12:07:37;;;;;;;9.82;4.50;;;;;;;;;;5861008;28;20113;-82
2024/02/01 12:10:30;;;;;;;6.78;4.72;;;;;;;;;;5861106;28;20411;-81
2024/02/01 12:13:22;;;;;;;12.57;4.60;;;;;;;;;;5862027;28;20541;-81
2024/02/01 12:16:30;;;;;;;8.00;4.13;;;;;;;;;;5827000;28;20046;-82
2024/02/01 12:19:23;;;;;;;8.35;5.10;;;;;;;;;;5837792;28;20412;-82
2024/02/01 12:22:15;;;;;;;5.45;3.03;;;;;;;;;;5837678;28;20104;-82
2024/02/01 12:25:20;;;;;;;9.75;5.28;;;;;;;;;;5838043;28;20049;-81
2024/02/01 12:28:11;;;;;;;7.28;4.68;;;;;;;;;;5857945;28;20041;-83
2024/02/01 12:31:04;;;;;;;3.47;3.17;;;;;;;;;;5843946;28;20060;-81
2024/02/01 12:33:55;;;;;;;4.05;3.65;;;;;;;;;;5843153;28;20045;-83
2024/02/01 12:36:48;;;;;;;5.05;4.20;;;;;;;;;;5843957;28;20049;-83
2024/02/01 12:39:41;;;;;;;3.20;2.92;;;;;;;;;;5843453;28;20046;-84
2024/02/01 12:42:33;;;;;;;4.78;4.03;;;;;;;;;;5842226;28;20056;-84
2024/02/01 12:45:24;;;;;;;3.03;2.65;;;;;;;;;;5842298;28;20053;-84
2024/02/01 12:48:16;;;;;;;5.55;3.83;;;;;;;;;;5842082;28;20057;-83
2024/02/01 12:51:08;;;;;;;4.43;2.90;;;;;;;;;;5842028;28;20053;-83
2024/02/01 12:54:00;;;;;;;5.07;3.42;;;;;;;;;;5842427;28;20050;-83
2024/02/01 12:56:51;;;;;;;4.20;2.90;;;;;;;;;;5865340;28;20042;-84
2024/02/01 12:59:42;;;;;;;3.90;3.55;;;;;;;;;;5864852;28;20047;-84
2024/02/01 13:02:34;;;;;;;5.53;3.13;;;;;;;;;;5865938;28;20504;-83
2024/02/01 13:05:25;;;;;;;5.68;4.82;;;;;;;;;;5864821;28;20483;-84
2024/02/01 13:08:15;;;;;;;3.47;2.90;;;;;;;;;;5829913;28;20072;-83
2024/02/01 13:11:07;;;;;;;8.90;3.33;;;;;;;;;;5842937;28;20056;-82
2024/02/01 13:13:58;;;;;;;5.22;3.65;;;;;;;;;;5841957;28;20050;-83
2024/02/01 13:16:49;;;;;;;2.95;2.47;;;;;;;;;;5841493;28;20052;-84
2024/02/01 13:19:40;;;;;;;5.25;4.25;;;;;;;;;;5841289;28;20053;-84
2024/02/01 13:22:31;;;;;;;4.75;4.22;;;;;;;;;;5842473;28;20555;-83
2024/02/01 13:25:22;;;;;;;4.25;3.83;;;;;;;;;;5842421;28;20054;-83
2024/02/01 13:28:13;;;;;;;5.60;3.17;;;;;;;;;;5841218;28;20046;-83
2024/02/01 13:31:05;;;;;;;8.88;4.80;;;;;;;;;;5842765;28;20057;-83
2024/02/01 13:33:59;;;;;;;4.97;4.07;;;;;;;;;;5841397;28;20049;-83
2024/02/01 13:36:50;;;;;;;3.20;2.90;;;;;;;;;;5841922;28;20049;-83
2024/02/01 13:39:43;;;;;;;13.43;4.50;;;;;;;;;;5839902;28;20061;-83
2024/02/01 13:42:34;;;;;;;3.30;3.03;;;;;;;;;;5824640;28;20064;-83
2024/02/01 13:45:25;;;;;;;7.97;4.60;;;;;;;;;;5840790;28;20046;-82
2024/02/01 13:48:16;;;;;;;6.30;4.15;;;;;;;;;;5841977;28;20072;-82
2024/02/01 13:51:08;;;;;;;6.78;4.57;;;;;;;;;;5841908;28;20049;-83
2024/02/01 13:53:59;;;;;;;7.72;5.13;;;;;;;;;;5840986;28;20407;-83
2024/02/01 13:56:50;;;;;;;9.15;4.40;;;;;;;;;;5842101;28;20041;-83
2024/02/01 13:59:41;;;;;;;6.15;5.47;;;;;;;;;;5840325;28;20562;-83
2024/02/01 14:02:32;;;;;;;6.53;4.40;;;;;;;;;;5824180;28;20136;-84
2024/02/01 14:05:26;;;;;;;5.97;4.25;;;;;;;;;;5840381;28;20046;-83
2024/02/01 14:08:17;;;;;;;10.80;5.50;;;;;;;;;;5840081;28;20050;-83
2024/02/01 14:11:08;;;;;;;3.95;3.38;;;;;;;;;;5824082;28;20053;-82
2024/02/01 14:13:59;;;;;;;5.25;3.58;;;;;;;;;;5824703;28;20053;-82
2024/02/01 14:16:49;;;;;;;9.50;4.95;;;;;;;;;;5841473;28;20056;-83
2024/02/01 14:19:40;;;;;;;5.00;4.47;;;;;;;;;;5840153;28;20053;-82
2024/02/01 14:22:31;;;;;;;3.40;3.10;;;;;;;;;;5839706;28;20148;-82
2024/02/01 14:25:24;;;;;;;12.85;5.25;;;;;;;;;;5841280;28;20408;-84
2024/02/01 14:28:15;;;;;;;5.10;3.17;;;;;;;;;;5841053;28;20077;-84
2024/02/01 14:31:08;;;;;;;5.07;3.90;;;;;;;;;;5839874;28;20046;-82
2024/02/01 14:33:59;;;;;;;4.88;3.85;;;;;;;;;;5840432;28;20046;-84
2024/02/01 14:36:50;;;;;;;9.38;4.88;;;;;;;;;;5839634;28;20081;-83
2024/02/01 14:39:42;;;;;;;9.43;4.00;;;;;;;;;;5840994;28;20042;-83
2024/02/01 14:42:33;;;;;;;6.15;3.25;;;;;;;;;;5839332;28;20041;-83
2024/02/01 14:45:24;;;;;;;7.82;4.43;;;;;;;;;;5840839;28;20042;-83
2024/02/01 14:48:15;;;;;;;5.28;2.85;;;;;;;;;;5839407;28;20053;-83
2024/02/01 14:51:06;;;;;;;6.53;3.47;;;;;;;;;;5839194;28;20046;-82
2024/02/01 14:53:57;;;;;;;4.15;2.67;;;;;;;;;;5839879;28;20049;-83
2024/02/01 14:56:47;;;;;;;3.45;2.83;;;;;;;;;;5839132;28;20048;-82
2024/02/01 14:59:39;;;;;;;3.20;2.85;;;;;;;;;;5840464;28;20045;-82
2024/02/01 15:02:30;;;;;;;3.83;2.78;;;;;;;;;;5838854;28;20042;-83
2024/02/01 15:05:20;;;;;;;5.53;2.97;;;;;;;;;;5822930;28;20049;-83
2024/02/01 15:08:11;;;;;;;2.60;2.40;;;;;;;;;;5838923;28;20054;-82
2024/02/01 15:11:02;;;;;;;6.03;3.15;;;;;;;;;;5838825;28;20045;-82
2024/02/01 15:13:55;;;;;;;4.78;3.53;;;;;;;;;;5839145;28;20046;-82
2024/02/01 15:16:45;;;;;;;8.88;5.30;;;;;;;;;;5838720;28;20038;-82
2024/02/01 15:19:36;;;;;;;6.88;3.60;;;;;;;;;;5838710;28;20128;-81
2024/02/01 15:22:27;;;;;;;3.58;3.08;;;;;;;;;;5838523;28;20446;-82
2024/02/01 15:25:18;;;;;;;7.68;4.32;;;;;;;;;;5838608;28;20526;-82
2024/02/01 15:28:12;;;;;;;12.45;5.35;;;;;;;;;;5839769;28;20136;-81
2024/02/01 15:31:05;;;;;;;5.18;3.10;;;;;;;;;;5838669;28;20054;-81
2024/02/01 15:33:57;;;;;;;6.78;3.20;;;;;;;;;;5855188;28;20056;-82
2024/02/01 15:36:48;;;;;;;6.18;3.72;;;;;;;;;;5839807;28;20050;-82
2024/02/01 15:39:39;;;;;;;4.03;2.28;;;;;;;;;;5838315;28;20041;-82
2024/02/01 15:42:31;;;;;;;2.28;1.90;;;;;;;;;;5854886;28;20115;-82
2024/02/01 15:45:23;;;;;;;1.48;1.38;;;;;;;;;;5838423;28;20492;-82
2024/02/01 15:48:14;;;;;;;5.47;2.03;;;;;;;;;;5838083;28;20044;-82
2024/02/01 15:51:07;;;;;;;3.72;1.63;;;;;;;;;;5838066;28;20439;-82
2024/02/01 15:53:57;;;;;;;3.38;2.50;;;;;;;;;;5838728;28;20058;-82
2024/02/01 15:56:48;;;;;;;1.95;1.75;;;;;;;;;;5838087;28;20048;-82
2024/02/01 15:59:39;;;;;;;9.50;3.72;;;;;;;;;;5837883;28;20038;-82
2024/02/01 16:02:30;;;;;;;3.95;3.45;;;;;;;;;;5837439;28;20408;-82
2024/02/01 16:05:21;;;;;;;12.52;4.70;;;;;;;;;;5837821;28;20057;-82
2024/02/01 16:08:12;;;;;;;3.58;2.10;;;;;;;;;;5837756;28;20041;-82
2024/02/01 16:11:03;;;;;;;11.60;4.20;;;;;;;;;;5837950;28;20046;-81
2024/02/01 16:13:57;;;;;;;5.25;2.53;;;;;;;;;;5839663;28;20046;-82
2024/02/01 16:16:48;;;;;;;7.47;2.67;;;;;;;;;;5837702;28;20112;-81
2024/02/01 16:19:41;;;;;;;5.22;3.63;;;;;;;;;;5837596;28;20049;-81
2024/02/01 16:22:49;;;;;;;6.28;4.03;;;;;;;;;;5821819;28;20163;-82
2024/02/01 16:25:42;;;;;;;6.40;3.00;;;;;;;;;;5839039;28;20050;-82
2024/02/01 16:28:39;;;;;;;3.85;3.20;;;;;;;;;;5838985;28;20046;-81
2024/02/01 16:31:30;;;;;;;6.28;3.78;;;;;;;;;;5838388;28;20390;-82
2024/02/01 16:34:38;;;;;;;5.93;3.40;;;;;;;;;;5837317;28;20049;-82
2024/02/01 16:37:29;;;;;;;4.43;2.92;;;;;;;;;;5837649;28;20509;-82
2024/02/01 16:40:33;;;;;;;4.25;3.90;;;;;;;;;;5821284;28;20057;-82
2024/02/01 16:43:37;;;;;;;6.57;4.28;;;;;;;;;;5837420;28;20129;-81
2024/02/01 16:46:48;;;;;;;7.90;4.22;;;;;;;;;;5838829;28;20050;-81
2024/02/01 16:49:39;;;;;;;4.00;2.55;;;;;;;;;;5838613;28;20496;-82
2024/02/01 16:52:45;;;;;;;13.73;8.23;;;;;;;;;;5837473;28;20050;-81
2024/02/01 16:55:42;;;;;;;59.47;31.75;;;;;;;;;;5838628;28;20582;-81
2024/02/01 16:58:56;;;;;;;52.90;27.58;;;;;;;;;;5821690;28;20373;-82
2024/02/01 17:01:52;;;;;;;39.28;21.38;;;;;;;;;;5838673;28;20069;-81
2024/02/01 17:04:43;;;;;;;32.65;15.50;;;;;;;;;;5838533;28;20385;-82
2024/02/01 17:07:34;;;;;;;19.13;10.60;;;;;;;;;;5837330;28;20046;-82
2024/02/01 17:10:50;;;;;;;21.45;14.57;;;;;;;;;;5837268;28;20049;-82
2024/02/01 17:13:41;;;;;;;17.70;8.57;;;;;;;;;;5839823;28;20045;-82
2024/02/01 17:16:59;;;;;;;15.65;9.10;;;;;;;;;;5842823;28;20493;-81
2024/02/01 17:19:53;;;;;;;23.70;11.30;;;;;;;;;;5842889;28;20041;-82
2024/02/01 17:22:45;;;;;;;15.95;11.60;;;;;;;;;;5841234;28;20516;-82
2024/02/01 17:25:39;;;;;;;15.68;10.55;;;;;;;;;;5824880;28;20513;-81
2024/02/01 17:28:40;;;;;;;16.88;10.95;;;;;;;;;;5857633;28;20052;-82
2024/02/01 17:31:34;;;;;;;31.65;14.65;;;;;;;;;;5842607;28;20384;-82
2024/02/01 17:34:38;;;;;;;26.10;12.50;;;;;;;;;;5824999;28;20514;-81
2024/02/01 17:37:38;;;;;;;15.25;11.05;;;;;;;;;;5841099;28;20042;-82
2024/02/01 17:40:36;;;;;;;21.92;14.40;;;;;;;;;;5840980;28;20119;-82
2024/02/01 17:43:27;;;;;;;9.65;6.20;;;;;;;;;;5842220;28;20042;-81
2024/02/01 17:47:02;;;;;;;11.02;6.22;;;;;;;;;;5841971;28;20050;-81
2024/02/01 17:49:53;;;;;;;29.30;9.48;;;;;;;;;;5843862;28;20626;-82
2024/02/01 17:52:48;;;;;;;10.55;7.70;;;;;;;;;;5841939;28;20064;-82
2024/02/01 17:55:46;;;;;;;13.43;9.23;;;;;;;;;;5840495;28;20065;-82